Time;durP1;ratioP1;P1;durP2;ratioP2;P2;SDS_P1;SDS_P2;PMS_P1;PMS_P2;Temp;Humidity;BMP_temperature;BMP_pressure;BME280_temperature;BME280_humidity;BME280_pressure;Samples;Min_cycle;Max_cycle;Signal;HPM_P1;HPM_P2
2022/05/15 00:02:13;;;;;;;6.23;3.10;;;13.50;93.80;;;;;;4988970;28;20444;-73
2022/05/15 00:05:00;;;;;;;3.80;2.30;;;13.40;94.00;;;;;;4982904;28;20818;-73
2022/05/15 00:07:46;;;;;;;9.03;3.77;;;13.40;93.90;;;;;;4990915;28;20451;-72
2022/05/15 00:10:32;;;;;;;5.23;3.50;;;13.20;94.10;;;;;;4997760;28;20432;-70
2022/05/15 00:13:19;;;;;;;9.30;3.10;;;13.10;94.50;;;;;;4990372;28;20432;-71
2022/05/15 00:16:06;;;;;;;5.90;2.93;;;12.90;94.90;;;;;;4982592;28;20462;-70
2022/05/15 00:18:51;;;;;;;5.60;3.43;;;12.90;95.20;;;;;;4978659;28;20559;-72
2022/05/15 00:21:38;;;;;;;7.80;3.57;;;13.00;95.20;;;;;;4994093;28;20906;-72
2022/05/15 00:24:24;;;;;;;6.77;4.00;;;13.10;95.20;;;;;;4984273;28;20440;-72
2022/05/15 00:27:10;;;;;;;5.20;3.30;;;13.10;94.90;;;;;;4990547;28;20647;-72
2022/05/15 00:29:56;;;;;;;5.00;2.90;;;13.00;95.00;;;;;;4989144;28;20496;-72
2022/05/15 00:32:41;;;;;;;4.60;3.10;;;12.90;95.20;;;;;;5000497;28;20818;-72
2022/05/15 00:35:28;;;;;;;4.77;2.67;;;12.80;95.80;;;;;;4984878;28;20417;-72
2022/05/15 00:38:15;;;;;;;5.23;3.40;;;12.80;96.30;;;;;;4985814;28;20965;-72
2022/05/15 00:41:01;;;;;;;7.93;2.73;;;12.90;96.40;;;;;;4990735;28;20491;-72
2022/05/15 00:43:48;;;;;;;6.03;3.00;;;12.80;96.30;;;;;;4980998;28;20547;-72
2022/05/15 00:46:36;;;;;;;5.93;3.40;;;12.70;96.30;;;;;;4994767;28;20497;-72
2022/05/15 00:49:22;;;;;;;6.47;3.43;;;12.70;96.40;;;;;;4997786;28;20472;-72
2022/05/15 00:52:11;;;;;;;5.67;3.20;;;12.60;96.80;;;;;;4994146;28;20453;-72
2022/05/15 00:55:03;;;;;;;7.83;3.10;;;12.70;97.10;;;;;;4983610;28;20455;-72
2022/05/15 00:57:52;;;;;;;6.03;3.10;;;12.70;97.00;;;;;;4991580;28;20475;-71
2022/05/15 01:00:42;;;;;;;9.03;3.30;;;12.70;97.20;;;;;;4988632;28;20550;-72
2022/05/15 01:03:27;;;;;;;7.30;3.17;;;12.70;97.30;;;;;;4995024;28;20500;-72
2022/05/15 01:06:13;;;;;;;6.40;2.97;;;12.80;97.20;;;;;;5000936;28;20476;-72
2022/05/15 01:09:02;;;;;;;5.50;3.30;;;12.70;97.00;;;;;;4996774;28;23230;-72
2022/05/15 01:11:50;;;;;;;3.63;3.03;;;12.70;97.00;;;;;;4992324;28;20426;-71
2022/05/15 01:14:39;;;;;;;4.97;3.20;;;12.60;97.00;;;;;;4981500;28;20440;-72
2022/05/15 01:17:25;;;;;;;12.00;3.13;;;12.60;97.00;;;;;;4994376;28;20429;-71
2022/05/15 01:20:14;;;;;;;6.97;4.27;;;12.60;97.10;;;;;;4979763;28;20572;-72
2022/05/15 01:23:01;;;;;;;7.57;3.43;;;12.60;97.00;;;;;;4990326;28;20466;-72
2022/05/15 01:25:47;;;;;;;3.97;2.80;;;12.60;97.10;;;;;;4988982;28;20771;-71
2022/05/15 01:28:32;;;;;;;5.80;3.27;;;12.60;97.10;;;;;;4990800;28;20452;-71
2022/05/15 01:31:19;;;;;;;3.97;2.90;;;12.50;97.10;;;;;;4998752;28;20426;-71
2022/05/15 01:34:08;;;;;;;4.07;2.93;;;12.40;97.30;;;;;;4988858;28;20504;-72
2022/05/15 01:36:54;;;;;;;5.00;3.03;;;12.30;97.50;;;;;;4996813;28;20959;-72
2022/05/15 01:39:41;;;;;;;4.70;2.80;;;12.30;97.60;;;;;;4989031;28;21008;-72
2022/05/15 01:42:27;;;;;;;8.10;3.03;;;12.20;98.10;;;;;;5001471;28;20928;-73
2022/05/15 01:45:15;;;;;;;5.20;3.10;;;12.20;98.50;;;;;;5000606;28;20500;-72
2022/05/15 01:48:01;;;;;;;5.30;3.47;;;12.20;98.90;;;;;;4976670;28;20451;-72
2022/05/15 01:50:46;;;;;;;4.33;2.53;;;12.20;98.80;;;;;;4994403;28;20916;-72
2022/05/15 01:53:32;;;;;;;5.70;2.80;;;12.10;98.70;;;;;;4983842;28;20543;-72
2022/05/15 01:56:20;;;;;;;3.57;2.63;;;12.00;98.90;;;;;;4990130;28;20420;-72
2022/05/15 01:59:06;;;;;;;6.10;3.50;;;12.10;99.00;;;;;;5009959;23;20464;-75
2022/05/15 02:01:52;;;;;;;3.83;2.80;;;12.10;99.00;;;;;;5010420;28;20555;-75
2022/05/15 02:04:38;;;;;;;6.73;3.10;;;12.00;99.10;;;;;;5006762;28;20842;-75
2022/05/15 02:07:23;;;;;;;4.63;2.77;;;12.00;98.80;;;;;;5015468;28;20420;-75
2022/05/15 02:10:10;;;;;;;5.13;3.10;;;11.80;99.60;;;;;;5011785;28;20856;-75
2022/05/15 02:12:58;;;;;;;5.13;2.83;;;11.80;99.90;;;;;;5002672;28;20448;-75
2022/05/15 02:15:44;;;;;;;4.07;3.10;;;11.90;99.90;;;;;;5005765;28;20930;-75
2022/05/15 02:18:30;;;;;;;4.03;2.90;;;12.00;99.90;;;;;;5015464;28;20412;-75
2022/05/15 02:21:16;;;;;;;7.37;2.90;;;11.90;99.80;;;;;;5002592;28;20452;-75
2022/05/15 02:24:01;;;;;;;4.20;3.07;;;11.90;99.60;;;;;;4992514;28;20450;-75
2022/05/15 02:26:47;;;;;;;4.27;2.83;;;12.00;99.60;;;;;;5025357;28;20943;-75
2022/05/15 02:29:34;;;;;;;6.67;2.90;;;12.00;99.60;;;;;;5006009;28;20464;-75
2022/05/15 02:32:20;;;;;;;5.17;3.20;;;11.90;99.70;;;;;;5005617;28;21060;-75
2022/05/15 02:35:06;;;;;;;3.60;2.83;;;11.80;99.60;;;;;;5009426;28;20428;-75
2022/05/15 02:37:52;;;;;;;7.53;3.27;;;11.80;99.70;;;;;;5012007;28;20471;-75
2022/05/15 02:40:38;;;;;;;6.17;3.00;;;11.70;99.90;;;;;;5004781;28;20492;-75
2022/05/15 02:43:23;;;;;;;4.77;2.93;;;11.70;99.70;;;;;;5008886;28;20423;-75
2022/05/15 02:46:11;;;;;;;6.87;3.47;;;11.80;99.80;;;;;;5005525;28;20427;-75
2022/05/15 02:52:00;;;;;;;5.00;3.10;;;11.60;99.80;;;;;;5000963;28;20456;-75
2022/05/15 02:54:45;;;;;;;5.40;3.00;;;11.60;99.90;;;;;;5012870;28;20581;-75
2022/05/15 02:57:32;;;;;;;10.27;3.00;;;11.70;99.90;;;;;;5015933;28;20925;-75
2022/05/15 03:00:19;;;;;;;3.97;2.77;;;11.60;99.90;;;;;;5014613;28;20467;-75
2022/05/15 03:03:06;;;;;;;4.30;3.20;;;11.60;99.90;;;;;;5005863;28;20449;-75
2022/05/15 03:05:52;;;;;;;6.47;2.63;;;11.60;99.90;;;;;;5009674;28;20547;-75
2022/05/15 03:08:41;;;;;;;3.80;2.37;;;11.70;99.90;;;;;;5014735;28;20447;-75
2022/05/15 03:11:27;;;;;;;4.93;2.83;;;11.70;99.90;;;;;;5008879;28;20420;-75
2022/05/15 03:14:12;;;;;;;5.10;3.60;;;11.70;99.90;;;;;;5014597;28;20536;-75
2022/05/15 03:16:58;;;;;;;4.43;2.80;;;11.70;99.70;;;;;;5016328;28;20424;-75
2022/05/15 03:19:45;;;;;;;4.90;3.80;;;11.70;99.90;;;;;;5009282;28;20530;-75
2022/05/15 03:22:31;;;;;;;5.60;3.20;;;11.60;99.70;;;;;;5010471;28;20530;-76
2022/05/15 03:25:16;;;;;;;5.00;2.33;;;11.60;99.80;;;;;;5011408;28;20474;-75
2022/05/15 03:28:04;;;;;;;3.43;2.53;;;11.60;99.90;;;;;;5010785;28;20422;-75
2022/05/15 03:30:50;;;;;;;4.57;3.27;;;11.60;99.90;;;;;;5009183;28;20491;-75
2022/05/15 03:33:35;;;;;;;5.60;3.13;;;11.60;99.90;;;;;;5012302;28;20403;-75
2022/05/15 03:36:22;;;;;;;5.53;3.03;;;11.60;99.90;;;;;;5008342;28;20829;-75
2022/05/15 03:39:09;;;;;;;6.67;2.80;;;11.60;99.90;;;;;;5012993;28;20804;-75
2022/05/15 03:41:55;;;;;;;5.77;3.20;;;11.60;99.90;;;;;;5006084;28;20495;-75
2022/05/15 03:44:40;;;;;;;7.80;2.47;;;11.50;99.90;;;;;;5013047;28;20462;-74
2022/05/15 03:47:26;;;;;;;4.17;2.80;;;11.40;99.90;;;;;;5011159;28;20774;-75
2022/05/15 03:50:12;;;;;;;5.57;3.00;;;11.30;99.90;;;;;;5006909;28;20619;-75
2022/05/15 03:52:59;;;;;;;5.27;2.97;;;11.40;99.90;;;;;;5017702;28;21216;-75
2022/05/15 03:55:45;;;;;;;3.77;3.37;;;11.30;99.90;;;;;;5008669;28;20457;-75
2022/05/15 03:58:35;;;;;;;3.90;2.63;;;11.40;99.90;;;;;;5008819;28;20423;-75
2022/05/15 04:01:20;;;;;;;4.80;3.30;;;11.40;99.90;;;;;;5005982;28;20472;-75
2022/05/15 04:04:06;;;;;;;8.43;2.63;;;11.50;99.90;;;;;;5015664;28;20535;-74
2022/05/15 04:06:51;;;;;;;3.57;3.00;;;11.40;99.90;;;;;;5011286;28;20429;-75
2022/05/15 04:09:40;;;;;;;4.90;2.90;;;11.40;99.90;;;;;;5018208;28;21010;-75
2022/05/15 04:12:26;;;;;;;4.87;2.87;;;11.30;99.90;;;;;;5015531;28;20427;-75
2022/05/15 04:15:12;;;;;;;5.37;3.03;;;11.20;99.90;;;;;;5011368;28;20802;-75
2022/05/15 04:17:58;;;;;;;5.90;2.80;;;11.30;99.90;;;;;;5022063;28;20545;-75
2022/05/15 04:20:44;;;;;;;8.70;3.90;;;11.30;99.90;;;;;;4998455;28;20793;-75
2022/05/15 04:23:30;;;;;;;7.60;2.73;;;11.40;99.90;;;;;;5016343;28;20412;-75
2022/05/15 04:26:18;;;;;;;5.47;3.50;;;11.40;99.90;;;;;;5012557;28;20400;-75
2022/05/15 04:29:04;;;;;;;12.20;3.03;;;11.50;99.90;;;;;;5014272;28;20465;-75
2022/05/15 04:31:55;;;;;;;4.37;2.57;;;11.50;99.90;;;;;;5011015;28;20546;-75
2022/05/15 04:34:40;;;;;;;5.03;2.77;;;11.60;99.90;;;;;;5011821;28;20435;-75
2022/05/15 04:37:26;;;;;;;5.30;3.50;;;11.80;99.90;;;;;;5020075;28;20403;-75
2022/05/15 04:40:13;;;;;;;4.70;2.73;;;11.90;99.90;;;;;;5008318;28;20616;-75
2022/05/15 04:43:01;;;;;;;5.27;2.87;;;11.80;99.90;;;;;;5017818;28;21049;-75
2022/05/15 04:45:46;;;;;;;3.60;2.90;;;12.00;99.90;;;;;;5001688;28;20562;-75
2022/05/15 04:48:32;;;;;;;5.00;2.90;;;12.10;99.90;;;;;;5013029;28;20426;-75
2022/05/15 04:51:17;;;;;;;7.87;3.00;;;12.10;99.90;;;;;;5007578;28;20506;-75
2022/05/15 04:54:03;;;;;;;3.57;2.67;;;12.20;99.90;;;;;;5010306;28;20399;-75
2022/05/15 04:56:49;;;;;;;6.93;2.97;;;12.20;99.90;;;;;;5022718;28;20407;-75
2022/05/15 04:59:36;;;;;;;7.80;2.93;;;12.30;99.90;;;;;;5001554;28;21014;-73
2022/05/15 05:02:21;;;;;;;5.90;3.37;;;12.40;99.90;;;;;;5013813;28;20990;-75
2022/05/15 05:05:08;;;;;;;8.13;3.80;;;12.30;99.90;;;;;;5009232;28;20559;-75
2022/05/15 05:07:54;;;;;;;6.13;2.70;;;12.40;99.90;;;;;;5007206;28;20437;-75
2022/05/15 05:10:40;;;;;;;3.83;2.70;;;12.50;99.90;;;;;;5000646;28;20475;-75
2022/05/15 05:13:26;;;;;;;4.23;2.73;;;12.50;99.90;;;;;;5003175;28;20428;-75
2022/05/15 05:16:13;;;;;;;5.13;3.40;;;12.70;99.90;;;;;;5011029;28;20419;-75
2022/05/15 05:18:59;;;;;;;10.10;3.40;;;12.80;99.90;;;;;;5008517;28;20584;-74
2022/05/15 05:21:44;;;;;;;3.50;2.73;;;13.00;99.90;;;;;;5015301;28;21104;-75
2022/05/15 05:24:30;;;;;;;7.20;2.87;;;13.10;99.90;;;;;;5006737;28;20557;-75
2022/05/15 05:27:16;;;;;;;4.60;3.10;;;13.20;99.90;;;;;;5009499;28;20433;-75
2022/05/15 05:30:02;;;;;;;4.33;3.13;;;13.30;99.90;;;;;;5005028;28;20522;-75
2022/05/15 05:32:49;;;;;;;4.70;2.87;;;13.40;99.90;;;;;;5018257;28;20399;-74
2022/05/15 05:35:35;;;;;;;8.43;3.07;;;13.50;99.90;;;;;;4998313;28;20446;-75
2022/05/15 05:38:21;;;;;;;5.23;2.83;;;13.60;99.90;;;;;;5017701;28;20571;-75
2022/05/15 05:41:07;;;;;;;5.23;3.27;;;13.70;99.90;;;;;;5004029;28;20460;-75
2022/05/15 05:43:53;;;;;;;7.80;3.20;;;13.80;99.90;;;;;;5012154;28;21075;-75
2022/05/15 05:46:39;;;;;;;4.30;2.53;;;13.90;99.90;;;;;;5010587;28;20938;-75
2022/05/15 05:49:26;;;;;;;7.97;3.37;;;14.00;99.90;;;;;;5004794;28;20502;-75
2022/05/15 05:52:12;;;;;;;4.30;2.53;;;14.10;99.90;;;;;;5006990;28;20567;-75
2022/05/15 05:54:57;;;;;;;8.10;3.30;;;14.20;99.90;;;;;;5011157;28;20432;-76
2022/05/15 05:57:44;;;;;;;7.30;3.37;;;14.40;99.90;;;;;;5009888;28;20408;-75
2022/05/15 06:00:32;;;;;;;5.40;3.50;;;14.60;99.90;;;;;;5007033;28;20619;-75
2022/05/15 06:06:22;;;;;;;6.43;2.77;;;15.00;99.90;;;;;;5006083;28;20388;-75
2022/05/15 06:09:08;;;;;;;7.10;3.03;;;15.10;99.90;;;;;;5003828;28;20468;-75
2022/05/15 06:11:54;;;;;;;4.83;3.10;;;15.30;99.90;;;;;;5012117;28;20408;-75
2022/05/15 06:14:39;;;;;;;5.00;2.80;;;15.40;99.90;;;;;;5004883;28;21009;-75
2022/05/15 06:17:27;;;;;;;9.00;2.97;;;15.60;99.90;;;;;;5011140;28;20412;-74
2022/05/15 06:20:13;;;;;;;4.57;3.00;;;15.70;99.90;;;;;;5006245;28;20570;-75
2022/05/15 06:23:00;;;;;;;4.97;2.70;;;15.90;99.90;;;;;;5013396;28;20444;-75
2022/05/15 06:25:46;;;;;;;6.30;2.80;;;16.00;99.90;;;;;;5009828;28;20517;-75
2022/05/15 06:28:34;;;;;;;4.30;2.80;;;16.20;99.90;;;;;;4999950;28;20449;-75
2022/05/15 06:31:20;;;;;;;7.23;3.20;;;16.40;99.90;;;;;;5001841;28;20529;-75
2022/05/15 06:34:05;;;;;;;12.10;4.17;;;16.60;99.90;;;;;;5006942;28;20441;-75
2022/05/15 06:36:51;;;;;;;4.47;2.60;;;16.70;99.90;;;;;;5015465;28;20432;-72
2022/05/15 06:39:38;;;;;;;5.40;2.90;;;16.80;99.90;;;;;;5003898;28;20958;-75
2022/05/15 06:42:25;;;;;;;5.03;2.60;;;16.90;99.90;;;;;;5006136;28;21021;-76
2022/05/15 06:45:12;;;;;;;9.50;2.73;;;17.10;99.70;;;;;;5008480;28;20441;-75
2022/05/15 06:47:58;;;;;;;5.27;2.83;;;17.20;99.20;;;;;;4999989;28;20449;-75
2022/05/15 06:50:44;;;;;;;3.50;2.40;;;17.30;98.90;;;;;;5010015;28;20542;-75
2022/05/15 06:53:30;;;;;;;9.77;2.93;;;17.40;98.40;;;;;;5015547;28;20449;-75
2022/05/15 06:59:20;;;;;;;6.90;2.37;;;17.70;97.10;;;;;;5005673;28;20513;-75
2022/05/15 07:02:07;;;;;;;7.30;2.67;;;17.80;99.10;;;;;;5013330;28;20568;-74
2022/05/15 07:04:53;;;;;;;4.83;2.70;;;18.00;96.80;;;;;;5012021;28;20445;-75
2022/05/15 07:07:40;;;;;;;10.00;5.37;;;18.20;97.40;;;;;;4998268;28;20454;-75
2022/05/15 07:10:26;;;;;;;7.00;3.37;;;18.30;94.90;;;;;;5009978;28;20472;-75
2022/05/15 07:13:14;;;;;;;5.10;2.70;;;18.50;96.60;;;;;;5015086;28;20407;-75
2022/05/15 07:16:00;;;;;;;5.73;2.30;;;18.70;95.10;;;;;;5017171;28;20437;-77
2022/05/15 07:18:46;;;;;;;6.33;2.67;;;18.80;95.30;;;;;;5002347;28;20917;-75
2022/05/15 07:21:32;;;;;;;8.13;2.70;;;18.90;93.00;;;;;;5009625;28;20426;-75
2022/05/15 07:24:17;;;;;;;5.37;2.67;;;19.10;92.30;;;;;;5013429;28;20781;-75
2022/05/15 07:27:03;;;;;;;9.63;3.03;;;19.20;92.50;;;;;;5002842;28;20474;-75
2022/05/15 07:29:50;;;;;;;6.30;3.00;;;19.30;90.30;;;;;;5009410;28;20449;-76
2022/05/15 07:32:36;;;;;;;6.93;2.67;;;19.50;86.70;;;;;;5005135;28;20507;-75
2022/05/15 07:35:22;;;;;;;3.60;2.27;;;19.60;79.60;;;;;;5006002;28;20452;-75
2022/05/15 07:38:07;;;;;;;4.40;2.20;;;19.70;81.70;;;;;;5006664;28;21093;-75
2022/05/15 07:40:53;;;;;;;8.50;2.60;;;19.90;76.10;;;;;;5010572;28;20981;-75
2022/05/15 07:43:40;;;;;;;4.90;2.53;;;20.00;73.70;;;;;;5014732;28;20560;-75
2022/05/15 07:46:27;;;;;;;5.50;2.37;;;20.10;75.70;;;;;;5014736;28;20844;-75
2022/05/15 07:49:13;;;;;;;7.63;2.53;;;20.20;72.30;;;;;;5010380;28;20520;-75
2022/05/15 07:51:59;;;;;;;5.40;2.57;;;20.30;72.40;;;;;;5009534;28;20938;-76
2022/05/15 07:54:45;;;;;;;8.77;3.20;;;20.40;67.40;;;;;;5010263;28;20449;-76
2022/05/15 07:57:32;;;;;;;5.37;2.67;;;20.60;69.70;;;;;;5007437;28;20983;-76
2022/05/15 08:00:19;;;;;;;7.47;2.10;;;20.80;68.50;;;;;;5008282;28;20486;-76
2022/05/15 08:03:09;;;;;;;6.97;2.17;;;20.80;63.50;;;;;;5012210;28;20432;-76
2022/05/15 08:08:58;;;;;;;8.03;2.63;;;21.00;62.80;;;;;;5008093;28;20512;-76
2022/05/15 08:11:44;;;;;;;4.37;2.50;;;21.10;64.50;;;;;;5021355;28;20465;-76
2022/05/15 08:14:30;;;;;;;5.37;2.87;;;21.20;65.90;;;;;;5011928;28;20473;-76
2022/05/15 08:17:16;;;;;;;7.37;2.53;;;21.30;63.90;;;;;;5005006;28;21028;-76
2022/05/15 08:26:19;;;;;;;6.70;2.50;;;21.50;57.50;;;;;;5008736;28;20993;-76
2022/05/15 08:29:04;;;;;;;6.53;2.43;;;21.60;62.00;;;;;;5017403;28;20505;-76
2022/05/15 08:31:50;;;;;;;6.70;2.10;;;21.60;58.20;;;;;;5016136;28;20531;-77
2022/05/15 08:34:37;;;;;;;7.80;2.57;;;21.60;57.90;;;;;;5009881;28;20800;-77
2022/05/15 08:37:24;;;;;;;5.40;2.30;;;21.60;55.00;;;;;;5007323;28;20795;-76
2022/05/15 08:40:12;;;;;;;7.00;2.17;;;21.70;55.10;;;;;;5014152;28;20461;-76
2022/05/15 08:42:59;;;;;;;4.17;2.00;;;21.70;55.20;;;;;;5016003;28;20524;-75
2022/05/15 08:45:57;;;;;;;7.50;2.30;;;21.90;52.30;;;;;;5014635;28;20456;-75
2022/05/15 08:48:42;;;;;;;6.93;3.27;;;22.00;55.20;;;;;;5006653;28;20577;-76
2022/05/15 08:51:31;;;;;;;2.70;1.77;;;22.00;55.40;;;;;;5011554;28;20480;-76
2022/05/15 08:54:18;;;;;;;5.00;2.00;;;22.10;55.60;;;;;;5016674;28;20433;-75
2022/05/15 08:57:04;;;;;;;6.83;2.30;;;22.30;54.00;;;;;;5006733;28;20588;-76
2022/05/15 08:59:55;;;;;;;4.63;2.10;;;22.40;55.90;;;;;;5010049;28;20555;-76
2022/05/15 09:02:42;;;;;;;5.80;2.27;;;22.60;50.20;;;;;;5007423;28;20492;-76
2022/05/15 09:05:30;;;;;;;6.30;3.00;;;22.70;45.00;;;;;;5008565;28;20831;-76
2022/05/15 09:08:43;;;;;;;5.87;1.83;;;22.80;45.00;;;;;;5005357;28;20977;-76
2022/05/15 09:11:44;;;;;;;3.87;2.20;;;22.80;44.80;;;;;;5011166;28;21061;-76
2022/05/15 09:14:42;;;;;;;5.53;2.20;;;23.00;47.00;;;;;;5005248;28;20428;-76
2022/05/15 09:17:36;;;;;;;6.47;2.20;;;23.10;45.00;;;;;;5004246;28;20446;-76
2022/05/15 09:20:32;;;;;;;4.83;2.07;;;23.30;44.60;;;;;;5010887;28;20468;-76
2022/05/15 09:23:23;;;;;;;4.00;2.00;;;23.40;44.60;;;;;;5005530;28;20449;-75
2022/05/15 09:26:16;;;;;;;7.80;1.80;;;23.50;38.80;;;;;;5002244;28;20997;-76
2022/05/15 09:29:05;;;;;;;6.20;1.80;;;23.50;37.60;;;;;;5011852;28;20536;-76
2022/05/15 09:31:51;;;;;;;10.03;2.40;;;23.50;37.60;;;;;;5011841;28;20618;-73
2022/05/15 09:34:39;;;;;;;8.00;2.10;;;23.50;39.70;;;;;;5008418;28;20923;-73
2022/05/15 09:40:40;;;;;;;7.50;2.00;;;23.70;39.00;;;;;;4999103;28;20483;-73
2022/05/15 09:43:33;;;;;;;3.83;1.80;;;23.80;36.00;;;;;;5010699;28;20577;-73
2022/05/15 09:46:23;;;;;;;5.33;1.93;;;23.90;35.60;;;;;;5004313;28;20456;-73
2022/05/15 09:49:19;;;;;;;5.80;1.70;;;24.00;37.70;;;;;;5008769;28;20450;-73
2022/05/15 09:52:12;;;;;;;5.70;1.60;;;24.10;36.20;;;;;;5006665;28;20477;-73
2022/05/15 09:55:10;;;;;;;4.60;1.87;;;24.20;35.00;;;;;;5006429;28;20454;-73
2022/05/15 09:57:57;;;;;;;8.10;2.00;;;24.20;34.60;;;;;;5000309;28;20446;-72
2022/05/15 10:00:43;;;;;;;4.50;1.60;;;24.30;33.30;;;;;;5002827;28;20476;-73
2022/05/15 10:03:34;;;;;;;4.97;1.60;;;24.40;35.10;;;;;;5002627;28;20497;-73
2022/05/15 10:06:23;;;;;;;7.07;2.47;;;24.50;34.10;;;;;;5010100;28;20475;-73
2022/05/15 10:09:14;;;;;;;21.63;2.20;;;24.50;33.10;;;;;;5004779;28;20531;-73
2022/05/15 10:12:05;;;;;;;6.80;1.93;;;24.50;34.70;;;;;;5007919;28;20469;-73
2022/05/15 10:14:54;;;;;;;6.20;1.80;;;24.60;33.80;;;;;;4997278;28;20529;-75
2022/05/15 10:17:46;;;;;;;4.00;1.87;;;24.70;32.70;;;;;;5012045;28;20802;-74
2022/05/15 10:20:39;;;;;;;5.23;2.13;;;24.80;32.10;;;;;;5005099;28;20470;-76
2022/05/15 10:23:28;;;;;;;7.00;1.83;;;24.80;30.30;;;;;;5008859;28;20457;-74
2022/05/15 10:26:22;;;;;;;5.20;2.47;;;24.80;32.40;;;;;;5002954;28;20465;-74
2022/05/15 10:29:17;;;;;;;3.23;1.80;;;24.90;33.80;;;;;;5006407;28;20920;-75
2022/05/15 10:32:09;;;;;;;7.33;2.20;;;25.00;34.80;;;;;;5011428;28;20476;-76
2022/05/15 10:34:56;;;;;;;3.17;2.10;;;25.10;32.90;;;;;;5002681;28;20457;-75
2022/05/15 10:37:55;;;;;;;5.90;1.67;;;25.20;30.70;;;;;;5014813;28;20457;-75
2022/05/15 10:40:46;;;;;;;5.50;1.90;;;25.30;30.80;;;;;;5010730;28;20460;-75
2022/05/15 10:43:44;;;;;;;4.63;2.10;;;25.30;30.80;;;;;;5005122;28;20429;-75
2022/05/15 10:46:39;;;;;;;4.87;2.23;;;25.30;30.30;;;;;;5007977;28;20453;-75
2022/05/15 10:49:47;;;;;;;4.13;1.70;;;25.30;32.10;;;;;;5014230;28;20799;-76
2022/05/15 10:52:56;;;;;;;4.53;1.83;;;25.50;30.00;;;;;;5007268;28;20838;-76
2022/05/15 10:59:02;;;;;;;6.03;2.43;;;25.60;32.40;;;;;;5006268;28;20449;-76
2022/05/15 11:01:54;;;;;;;6.27;2.07;;;25.70;29.30;;;;;;5010055;28;20561;-73
2022/05/15 11:04:49;;;;;;;3.67;1.97;;;25.70;30.40;;;;;;5003386;28;20453;-73
2022/05/15 11:07:40;;;;;;;5.97;2.40;;;25.80;31.20;;;;;;5001561;28;20466;-74
2022/05/15 11:10:36;;;;;;;3.70;1.90;;;25.80;29.50;;;;;;5012852;28;20461;-74
2022/05/15 11:13:30;;;;;;;11.23;1.97;;;25.90;30.20;;;;;;5014623;28;20440;-74
2022/05/15 11:16:23;;;;;;;6.93;2.00;;;26.00;29.00;;;;;;5011775;28;20452;-75
2022/05/15 11:19:32;;;;;;;5.80;2.00;;;26.00;30.30;;;;;;5014356;28;20500;-74
2022/05/15 11:22:31;;;;;;;8.63;2.20;;;26.10;27.10;;;;;;5013184;28;20448;-74
2022/05/15 11:25:21;;;;;;;3.20;1.90;;;26.10;29.50;;;;;;5003100;28;20453;-74
2022/05/15 11:28:14;;;;;;;4.10;2.33;;;26.20;29.50;;;;;;5013413;28;20444;-73
2022/05/15 11:31:06;;;;;;;4.10;2.50;;;26.20;29.00;;;;;;4995964;28;20479;-76
2022/05/15 11:33:55;;;;;;;6.63;2.50;;;26.40;31.50;;;;;;5003277;28;20464;-76
2022/05/15 11:36:43;;;;;;;4.90;1.87;;;26.60;27.30;;;;;;5010305;28;21034;-75
2022/05/15 11:39:29;;;;;;;7.03;2.20;;;26.70;30.10;;;;;;5000566;28;20479;-75
2022/05/15 11:42:17;;;;;;;4.70;2.23;;;26.80;26.50;;;;;;5009154;28;20479;-75
2022/05/15 11:45:35;;;;;;;3.70;1.77;;;26.90;27.90;;;;;;5016151;28;20472;-76
2022/05/15 11:48:23;;;;;;;3.20;1.43;;;26.90;28.50;;;;;;5017183;28;20425;-76
2022/05/15 11:51:29;;;;;;;4.17;2.17;;;27.00;27.50;;;;;;5015045;28;20492;-75
2022/05/15 11:54:30;;;;;;;4.67;1.93;;;27.10;28.00;;;;;;5006902;28;20449;-75
2022/05/15 11:57:33;;;;;;;6.47;1.80;;;27.10;26.50;;;;;;5016967;28;20429;-75
2022/05/15 12:00:25;;;;;;;6.53;3.40;;;27.20;26.50;;;;;;5016626;28;20457;-76
2022/05/15 12:06:05;;;;;;;5.50;2.33;;;27.20;25.00;;;;;;5111717;27;21051;-74
2022/05/15 12:09:14;;;;;;;4.70;2.20;;;27.20;27.30;;;;;;5090115;28;20418;-75
2022/05/15 12:12:31;;;;;;;13.63;2.30;;;27.30;27.80;;;;;;5074460;28;20470;-75
2022/05/15 12:15:34;;;;;;;4.20;2.00;;;27.30;27.10;;;;;;5067339;28;20935;-74
2022/05/15 12:18:32;;;;;;;4.43;2.07;;;27.50;27.20;;;;;;5065718;28;20435;-75
2022/05/15 12:21:35;;;;;;;5.77;1.87;;;27.60;25.90;;;;;;5076593;28;20418;-75
2022/05/15 12:24:30;;;;;;;6.83;2.53;;;27.70;25.00;;;;;;5066554;28;20943;-75
2022/05/15 12:27:23;;;;;;;3.27;1.80;;;27.60;26.80;;;;;;5075145;28;20426;-75
2022/05/15 12:30:20;;;;;;;5.70;1.70;;;27.50;26.60;;;;;;5071369;28;20455;-75
2022/05/15 12:33:08;;;;;;;7.43;2.00;;;27.60;25.70;;;;;;5063208;28;20525;-75
2022/05/15 12:35:55;;;;;;;5.70;1.77;;;27.80;27.40;;;;;;5056269;28;20928;-74
2022/05/15 12:38:48;;;;;;;4.63;2.50;;;27.90;27.30;;;;;;5071650;28;20952;-75
2022/05/15 12:41:37;;;;;;;5.13;1.53;;;27.90;27.00;;;;;;5070199;28;20443;-75
2022/05/15 12:44:31;;;;;;;3.23;1.73;;;28.10;26.70;;;;;;5074149;28;20458;-74
2022/05/15 12:47:24;;;;;;;5.10;1.60;;;28.20;25.60;;;;;;5074720;28;20507;-74
2022/05/15 12:50:17;;;;;;;5.47;1.90;;;28.30;26.60;;;;;;5078069;28;20446;-74
2022/05/15 12:53:03;;;;;;;3.73;1.67;;;28.50;24.60;;;;;;5060421;28;20585;-74
2022/05/15 12:55:51;;;;;;;5.00;2.43;;;28.40;23.90;;;;;;5066221;28;20427;-75
2022/05/15 12:58:38;;;;;;;5.57;2.33;;;28.40;25.50;;;;;;5074261;28;20493;-74
2022/05/15 13:01:26;;;;;;;4.13;1.90;;;28.40;24.80;;;;;;5070868;28;20466;-74
2022/05/15 13:04:19;;;;;;;6.07;2.40;;;28.40;25.10;;;;;;5068149;28;21134;-74
2022/05/15 13:07:08;;;;;;;4.87;1.70;;;28.40;24.90;;;;;;5071405;28;20419;-75
2022/05/15 13:10:00;;;;;;;6.37;1.93;;;28.40;24.30;;;;;;5068933;28;20565;-75
2022/05/15 13:12:53;;;;;;;4.47;2.00;;;28.50;25.40;;;;;;5065357;28;20443;-75
2022/05/15 13:15:40;;;;;;;8.67;2.20;;;28.60;25.20;;;;;;5065642;28;20929;-75
2022/05/15 13:18:28;;;;;;;6.03;2.03;;;28.80;25.60;;;;;;5056601;28;20520;-75
2022/05/15 13:21:20;;;;;;;7.50;1.93;;;29.00;22.90;;;;;;5057679;28;20586;-75
2022/05/15 13:24:09;;;;;;;4.23;1.70;;;29.20;24.30;;;;;;5058135;28;20801;-75
2022/05/15 13:26:56;;;;;;;3.63;1.80;;;29.30;26.10;;;;;;5050995;28;20431;-75
2022/05/15 13:29:43;;;;;;;3.93;1.70;;;29.40;24.00;;;;;;5059525;28;20444;-75
2022/05/15 13:32:29;;;;;;;5.30;1.80;;;29.50;24.20;;;;;;5051867;28;20593;-75
2022/05/15 13:35:16;;;;;;;4.80;1.83;;;29.60;24.60;;;;;;5056919;28;20577;-75
2022/05/15 13:38:16;;;;;;;4.60;1.97;;;29.60;23.70;;;;;;5057479;28;20434;-77
2022/05/15 13:44:14;;;;;;;8.67;1.83;;;29.90;23.60;;;;;;5055480;28;20468;-75
2022/05/15 13:47:04;;;;;;;3.50;1.80;;;30.00;22.70;;;;;;5058973;28;20431;-75
2022/05/15 13:49:52;;;;;;;3.70;1.40;;;30.00;22.20;;;;;;5056076;28;20526;-75
2022/05/15 13:52:39;;;;;;;5.93;1.80;;;30.00;23.30;;;;;;5053969;28;20447;-75
2022/05/15 13:55:38;;;;;;;5.70;1.40;;;30.00;23.70;;;;;;5056505;28;20423;-75
2022/05/15 13:58:47;;;;;;;5.10;2.13;;;30.10;19.80;;;;;;5054028;28;20949;-75
2022/05/15 14:01:35;;;;;;;5.10;2.00;;;30.00;21.20;;;;;;5050342;28;20996;-75
2022/05/15 14:04:27;;;;;;;4.17;2.27;;;30.10;22.60;;;;;;5054664;28;20435;-75
2022/05/15 14:07:26;;;;;;;5.33;2.13;;;30.10;21.80;;;;;;5060392;28;20431;-76
2022/05/15 14:10:23;;;;;;;3.50;1.90;;;30.00;20.80;;;;;;5057134;28;20578;-73
2022/05/15 14:13:10;;;;;;;4.30;2.17;;;29.90;22.10;;;;;;5054857;28;20443;-75
2022/05/15 14:15:55;;;;;;;7.00;2.50;;;29.80;22.60;;;;;;5047392;28;20938;-76
2022/05/15 14:18:41;;;;;;;2.80;1.60;;;29.80;23.10;;;;;;5059163;28;20426;-75
2022/05/15 14:21:29;;;;;;;3.80;1.70;;;29.90;23.00;;;;;;5049336;28;20455;-75
2022/05/15 14:24:15;;;;;;;4.50;1.67;;;30.00;22.20;;;;;;5056516;28;20439;-76
2022/05/15 14:27:01;;;;;;;4.87;1.70;;;30.20;23.20;;;;;;5058358;28;20569;-75
2022/05/15 14:29:47;;;;;;;3.63;1.60;;;30.20;21.00;;;;;;5053220;28;20513;-75
2022/05/15 14:32:35;;;;;;;4.13;2.00;;;30.00;19.70;;;;;;5050713;28;20971;-75
2022/05/15 14:35:25;;;;;;;3.30;1.90;;;30.00;20.60;;;;;;5055563;28;20473;-75
2022/05/15 14:38:12;;;;;;;4.47;1.80;;;30.00;20.60;;;;;;5054975;28;20979;-75
2022/05/15 14:40:58;;;;;;;7.53;2.67;;;29.90;23.40;;;;;;5052189;28;20501;-75
2022/05/15 14:43:45;;;;;;;5.00;1.63;;;29.90;24.30;;;;;;5061081;28;20423;-75
2022/05/15 14:46:34;;;;;;;4.77;2.10;;;30.00;23.70;;;;;;5059220;28;20551;-75
2022/05/15 14:49:20;;;;;;;3.57;1.87;;;29.90;22.10;;;;;;5056369;28;20976;-75
2022/05/15 14:52:07;;;;;;;5.30;1.83;;;29.90;22.00;;;;;;5055021;28;20447;-75
2022/05/15 14:54:54;;;;;;;3.87;2.17;;;29.70;22.00;;;;;;5058935;28;20419;-74
2022/05/15 14:57:42;;;;;;;9.40;1.97;;;29.60;21.90;;;;;;5046438;28;20420;-75
2022/05/15 15:00:31;;;;;;;4.07;2.23;;;29.60;22.50;;;;;;5049538;28;20976;-76
2022/05/15 15:03:17;;;;;;;6.43;1.60;;;29.60;21.90;;;;;;5057853;28;20438;-76
2022/05/15 15:06:05;;;;;;;6.63;1.93;;;29.60;22.10;;;;;;5058902;28;20521;-75
2022/05/15 15:08:51;;;;;;;4.50;1.90;;;29.50;21.80;;;;;;5051833;28;20471;-76